Time,TemperatureF,DewpointF,PressureIn,WindDirection,WindDirectionDegrees,WindSpeedMPH,WindSpeedGustMPH,Humidity,HourlyPrecipIn,Conditions,Clouds,dailyrainin,SoftwareType,DateUTC
2013-07-31 00:01:00,61.5,60.1,30.17,WSW,240,0.0,0.0,95,0.00,,---,0.00,VWS V14.01,2013-07-31 04:01:00,
2013-07-31 00:02:00,61.5,60.1,30.17,WSW,240,0.0,0.0,95,0.00,,---,0.00,VWS V14.01,2013-07-31 04:02:00,
2013-07-31 00:07:00,61.4,60.0,30.17,WSW,240,0.0,0.0,95,0.00,,---,0.00,VWS V14.01,2013-07-31 04:07:00,
2013-07-31 00:12:00,61.2,59.8,30.17,WSW,240,0.0,0.0,95,0.00,,---,0.00,VWS V14.01,2013-07-31 04:12:00,
2013-07-31 00:17:00,61.1,60.0,30.17,WSW,240,0.0,0.0,96,0.00,,---,0.00,VWS V14.01,2013-07-31 04:17:00,
2013-07-31 00:22:00,61.0,59.9,30.17,WSW,240,0.0,0.0,96,0.00,,---,0.00,VWS V14.01,2013-07-31 04:22:00,
2013-07-31 00:27:00,60.8,59.7,30.17,WSW,240,0.0,0.0,96,0.00,,---,0.00,VWS V14.01,2013-07-31 04:27:00,
2013-07-31 00:32:00,60.7,59.6,30.17,WSW,240,0.0,0.0,96,0.00,,---,0.00,VWS V14.01,2013-07-31 04:32:00,
2013-07-31 00:37:00,60.4,59.3,30.17,WSW,240,0.0,0.0,96,0.00,,---,0.00,VWS V14.01,2013-07-31 04:37:00,
2013-07-31 00:42:00,60.1,59.0,30.17,WSW,240,0.0,0.0,96,0.00,,---,0.00,VWS V14.01,2013-07-31 04:42:00,
2013-07-31 00:47:00,60.1,59.0,30.17,WSW,240,0.0,0.0,96,0.00,,---,0.00,VWS V14.01,2013-07-31 04:47:00,
2013-07-31 00:52:00,60.0,58.9,30.17,WSW,240,0.0,0.0,96,0.00,,---,0.00,VWS V14.01,2013-07-31 04:52:00,
2013-07-31 00:57:00,60.0,59.2,30.17,WSW,240,0.0,0.0,97,0.00,,---,0.00,VWS V14.01,2013-07-31 04:57:00,
2013-07-31 01:02:00,60.0,59.2,30.17,WSW,240,0.0,0.0,97,0.00,,---,0.00,VWS V14.01,2013-07-31 05:02:00,
2013-07-31 01:07:00,59.9,59.0,30.17,WSW,240,0.0,0.0,97,0.00,,---,0.00,VWS V14.01,2013-07-31 05:07:00,
2013-07-31 01:12:00,59.8,59.0,30.17,WSW,240,0.0,0.0,97,0.00,,---,0.00,VWS V14.01,2013-07-31 05:12:00,
2013-07-31 01:17:00,59.8,59.0,30.17,WSW,240,0.0,0.0,97,0.00,,---,0.00,VWS V14.01,2013-07-31 05:17:00,
2013-07-31 01:22:00,59.7,58.8,30.17,WSW,240,0.0,0.0,97,0.00,,---,0.00,VWS V14.01,2013-07-31 05:22:00,
2013-07-31 01:27:00,59.7,58.8,30.17,WSW,240,0.0,0.0,97,0.00,,---,0.00,VWS V14.01,2013-07-31 05:27:00,
2013-07-31 01:32:00,59.6,58.8,30.17,WSW,240,0.0,0.0,97,0.00,,---,0.00,VWS V14.01,2013-07-31 05:32:00,
2013-07-31 01:37:00,59.5,58.7,30.17,WSW,240,0.0,0.0,97,0.00,,---,0.00,VWS V14.01,2013-07-31 05:37:00,
2013-07-31 01:42:00,59.4,58.5,30.17,WSW,240,0.0,0.0,97,0.00,,---,0.00,VWS V14.01,2013-07-31 05:42:00,
2013-07-31 01:47:00,59.3,58.5,30.17,WSW,240,0.0,0.0,97,0.00,,---,0.00,VWS V14.01,2013-07-31 05:47:00,
2013-07-31 01:52:00,59.1,58.2,30.17,WSW,240,0.0,0.0,97,0.00,,---,0.00,VWS V14.01,2013-07-31 05:52:00,
2013-07-31 01:57:00,58.9,58.0,30.17,WSW,240,0.0,0.0,97,0.00,,---,0.00,VWS V14.01,2013-07-31 05:57:00,
2013-07-31 02:02:00,58.8,58.0,30.17,WSW,240,0.0,0.0,97,0.00,,---,0.00,VWS V14.01,2013-07-31 06:02:00,
2013-07-31 02:08:00,58.8,58.0,30.17,WSW,240,0.0,0.0,97,0.00,,---,0.00,VWS V14.01,2013-07-31 06:08:00,
2013-07-31 02:13:00,58.8,58.2,30.17,WSW,240,0.0,0.0,98,0.00,,---,0.00,VWS V14.01,2013-07-31 06:13:00,
2013-07-31 02:18:00,58.9,58.3,30.17,WSW,240,0.0,0.0,98,0.00,,---,0.00,VWS V14.01,2013-07-31 06:18:00,
2013-07-31 02:23:00,58.8,58.2,30.16,WSW,240,0.0,0.0,98,0.00,,---,0.00,VWS V14.01,2013-07-31 06:23:00,
2013-07-31 02:28:00,58.7,58.1,30.17,WSW,240,0.0,0.0,98,0.00,,---,0.00,VWS V14.01,2013-07-31 06:28:00,
2013-07-31 02:33:00,58.6,58.0,30.17,WSW,240,0.0,0.0,98,0.00,,---,0.00,VWS V14.01,2013-07-31 06:33:00,
2013-07-31 02:38:00,58.6,58.0,30.17,WSW,240,0.0,0.0,98,0.00,,---,0.00,VWS V14.01,2013-07-31 06:38:00,
2013-07-31 02:43:00,58.5,57.9,30.16,WSW,240,0.0,0.0,98,0.00,,---,0.00,VWS V14.01,2013-07-31 06:43:00,
2013-07-31 02:48:00,58.5,57.9,30.16,WSW,240,0.0,0.0,98,0.00,,---,0.00,VWS V14.01,2013-07-31 06:48:00,
2013-07-31 02:53:00,58.5,57.9,30.16,WSW,240,0.0,0.0,98,0.00,,---,0.00,VWS V14.01,2013-07-31 06:53:00,
2013-07-31 02:58:00,58.6,58.0,30.16,WSW,240,0.0,0.0,98,0.00,,---,0.00,VWS V14.01,2013-07-31 06:58:00,
2013-07-31 03:03:00,58.6,58.0,30.16,WSW,240,0.0,0.0,98,0.00,,---,0.00,VWS V14.01,2013-07-31 07:03:00,
2013-07-31 03:08:00,58.7,58.1,30.16,WSW,240,0.0,0.0,98,0.00,,---,0.00,VWS V14.01,2013-07-31 07:08:00,
2013-07-31 03:13:00,58.7,58.1,30.16,WSW,240,0.0,0.0,98,0.00,,---,0.00,VWS V14.01,2013-07-31 07:13:00,
2013-07-31 03:18:00,58.7,58.1,30.16,WSW,240,0.0,0.0,98,0.00,,---,0.00,VWS V14.01,2013-07-31 07:18:00,
2013-07-31 03:23:00,58.7,58.1,30.16,WSW,240,0.0,0.0,98,0.00,,---,0.00,VWS V14.01,2013-07-31 07:23:00,
2013-07-31 03:28:00,58.6,58.0,30.16,WSW,240,0.0,0.0,98,0.00,,---,0.00,VWS V14.01,2013-07-31 07:28:00,
2013-07-31 03:33:00,58.4,57.8,30.16,WSW,240,0.0,0.0,98,0.00,,---,0.00,VWS V14.01,2013-07-31 07:33:00,
2013-07-31 03:38:00,58.4,57.8,30.16,WSW,240,0.0,0.0,98,0.00,,---,0.00,VWS V14.01,2013-07-31 07:38:00,
2013-07-31 03:43:00,58.3,57.7,30.16,WSW,240,0.0,0.0,98,0.00,,---,0.00,VWS V14.01,2013-07-31 07:43:00,
2013-07-31 03:48:00,58.2,57.6,30.16,WSW,240,0.0,0.0,98,0.00,,---,0.00,VWS V14.01,2013-07-31 07:48:00,
2013-07-31 03:53:00,58.2,57.6,30.16,WSW,240,0.0,0.0,98,0.00,,---,0.00,VWS V14.01,2013-07-31 07:53:00,
2013-07-31 03:58:00,58.0,57.4,30.16,WSW,240,0.0,0.0,98,0.00,,---,0.00,VWS V14.01,2013-07-31 07:58:00,
2013-07-31 04:03:00,57.9,57.3,30.16,WSW,240,0.0,0.0,98,0.00,,---,0.00,VWS V14.01,2013-07-31 08:03:00,
2013-07-31 04:08:00,57.8,57.2,30.16,WSW,240,0.0,0.0,98,0.00,,---,0.00,VWS V14.01,2013-07-31 08:08:00,
2013-07-31 04:13:00,57.9,57.6,30.16,WSW,240,0.0,0.0,99,0.00,,---,0.00,VWS V14.01,2013-07-31 08:13:00,
2013-07-31 04:18:00,58.2,57.9,30.16,WSW,240,0.0,0.0,99,0.00,,---,0.00,VWS V14.01,2013-07-31 08:18:00,
2013-07-31 04:23:00,58.2,57.9,30.16,WSW,240,0.0,0.0,99,0.00,,---,0.00,VWS V14.01,2013-07-31 08:23:00,
2013-07-31 04:28:00,58.4,58.1,30.16,WSW,240,0.0,0.0,99,0.00,,---,0.00,VWS V14.01,2013-07-31 08:28:00,
2013-07-31 04:33:00,58.5,58.2,30.16,WSW,240,0.0,0.0,99,0.00,,---,0.00,VWS V14.01,2013-07-31 08:33:00,
2013-07-31 04:38:00,58.5,58.2,30.17,WSW,240,0.0,0.0,99,0.00,,---,0.00,VWS V14.01,2013-07-31 08:38:00,
2013-07-31 04:43:00,58.2,57.6,30.17,ESE,119,0.0,1.0,98,0.00,,---,0.00,VWS V14.01,2013-07-31 08:43:00,
2013-07-31 04:48:00,57.9,57.3,30.17,ESE,119,0.0,1.0,98,0.00,,---,0.00,VWS V14.01,2013-07-31 08:48:00,
2013-07-31 04:53:00,57.9,57.3,30.17,ESE,119,0.0,1.0,98,0.00,,---,0.00,VWS V14.01,2013-07-31 08:53:00,
2013-07-31 04:58:00,57.8,57.2,30.17,ESE,118,0.0,1.0,98,0.00,,---,0.00,VWS V14.01,2013-07-31 08:58:00,
2013-07-31 05:03:00,57.7,57.1,30.17,ESE,119,0.0,0.0,98,0.00,,---,0.00,VWS V14.01,2013-07-31 09:03:00,
2013-07-31 05:08:00,57.6,57.0,30.17,ESE,119,0.0,0.0,98,0.00,,---,0.00,VWS V14.01,2013-07-31 09:08:00,
2013-07-31 05:13:00,57.7,57.1,30.17,ESE,119,0.0,0.0,98,0.00,,---,0.00,VWS V14.01,2013-07-31 09:13:00,
2013-07-31 05:18:00,57.7,57.1,30.17,ESE,120,0.0,1.0,98,0.00,,---,0.00,VWS V14.01,2013-07-31 09:18:00,
2013-07-31 05:23:00,57.7,57.1,30.17,ESE,120,0.0,1.0,98,0.00,,---,0.00,VWS V14.01,2013-07-31 09:23:00,
2013-07-31 05:28:00,57.6,57.0,30.18,ESE,120,0.0,1.0,98,0.00,,---,0.00,VWS V14.01,2013-07-31 09:28:00,
2013-07-31 05:33:00,57.6,57.0,30.18,ESE,120,0.0,0.0,98,0.00,,---,0.00,VWS V14.01,2013-07-31 09:33:00,
2013-07-31 05:38:00,57.4,56.8,30.18,ESE,120,0.0,0.0,98,0.00,,---,0.00,VWS V14.01,2013-07-31 09:38:00,
2013-07-31 05:43:00,57.3,56.7,30.18,ESE,120,0.0,0.0,98,0.00,,---,0.00,VWS V14.01,2013-07-31 09:43:00,
2013-07-31 05:48:00,57.1,56.5,30.18,ESE,120,0.0,0.0,98,0.00,,---,0.00,VWS V14.01,2013-07-31 09:48:00,
2013-07-31 05:54:00,57.0,56.4,30.18,ESE,120,0.0,0.0,98,0.00,,---,0.00,VWS V14.01,2013-07-31 09:54:00,
2013-07-31 05:59:00,56.9,56.3,30.18,ESE,120,0.0,0.0,98,0.00,,---,0.00,VWS V14.01,2013-07-31 09:59:00,
2013-07-31 06:04:00,56.9,56.6,30.18,ESE,120,0.0,0.0,99,0.00,,---,0.00,VWS V14.01,2013-07-31 10:04:00,
2013-07-31 06:09:00,57.0,56.7,30.18,ESE,120,0.0,0.0,99,0.00,,---,0.00,VWS V14.01,2013-07-31 10:09:00,
2013-07-31 06:14:00,57.0,56.7,30.18,ESE,120,0.0,0.0,99,0.00,,---,0.00,VWS V14.01,2013-07-31 10:14:00,
2013-07-31 06:19:00,57.1,56.8,30.18,ESE,120,0.0,0.0,99,0.00,,---,0.00,VWS V14.01,2013-07-31 10:19:00,
2013-07-31 06:24:00,57.2,56.9,30.18,ESE,120,0.0,0.0,99,0.00,,---,0.00,VWS V14.01,2013-07-31 10:24:00,
2013-07-31 06:29:00,57.2,56.9,30.18,ESE,119,0.0,2.0,99,0.00,,---,0.00,VWS V14.01,2013-07-31 10:29:00,
2013-07-31 06:34:00,57.3,57.0,30.18,ESE,119,0.0,0.0,99,0.00,,---,0.00,VWS V14.01,2013-07-31 10:34:00,
2013-07-31 06:39:00,57.2,56.9,30.19,ESE,119,0.0,0.0,99,0.00,,---,0.00,VWS V14.01,2013-07-31 10:39:00,
2013-07-31 06:44:00,57.3,57.0,30.19,ESE,119,0.0,0.0,99,0.00,,---,0.00,VWS V14.01,2013-07-31 10:44:00,
2013-07-31 06:49:00,57.4,57.1,30.19,ESE,119,0.0,0.0,99,0.00,,---,0.00,VWS V14.01,2013-07-31 10:49:00,
2013-07-31 06:54:00,57.4,57.1,30.19,ESE,119,0.0,0.0,99,0.00,,---,0.00,VWS V14.01,2013-07-31 10:54:00,
2013-07-31 06:59:00,57.5,57.2,30.19,ESE,119,0.0,0.0,99,0.00,,---,0.00,VWS V14.01,2013-07-31 10:59:00,
2013-07-31 07:04:00,57.6,57.3,30.19,ESE,119,0.0,0.0,99,0.00,,---,0.00,VWS V14.01,2013-07-31 11:04:00,
2013-07-31 07:09:00,58.0,57.7,30.19,ESE,119,0.0,0.0,99,0.00,,---,0.00,VWS V14.01,2013-07-31 11:09:00,
2013-07-31 07:14:00,58.4,58.1,30.19,ESE,119,0.0,0.0,99,0.00,,---,0.00,VWS V14.01,2013-07-31 11:14:00,
2013-07-31 07:19:00,58.8,58.5,30.19,ESE,119,0.0,0.0,99,0.00,,---,0.00,VWS V14.01,2013-07-31 11:19:00,
2013-07-31 07:24:00,59.2,58.9,30.19,ESE,119,0.0,0.0,99,0.00,,---,0.00,VWS V14.01,2013-07-31 11:24:00,
2013-07-31 07:29:00,59.6,59.3,30.19,ESE,119,0.0,0.0,99,0.00,,---,0.00,VWS V14.01,2013-07-31 11:29:00,
2013-07-31 07:34:00,60.2,59.9,30.19,ESE,119,0.0,0.0,99,0.00,,---,0.00,VWS V14.01,2013-07-31 11:34:00,
2013-07-31 07:39:00,61.0,60.7,30.19,ESE,119,0.0,0.0,99,0.00,,---,0.00,VWS V14.01,2013-07-31 11:39:00,
2013-07-31 07:44:00,62.7,62.7,30.19,ESE,119,0.0,0.0,100,0.00,,---,0.00,VWS V14.01,2013-07-31 11:44:00,
2013-07-31 07:49:00,64.7,64.7,30.18,ESE,119,0.0,0.0,100,0.00,,---,0.00,VWS V14.01,2013-07-31 11:49:00,
2013-07-31 07:54:00,65.8,65.8,30.18,ESE,119,0.0,0.0,100,0.00,,---,0.00,VWS V14.01,2013-07-31 11:54:00,
2013-07-31 07:59:00,66.3,66.0,30.18,ESE,119,0.0,0.0,99,0.00,,---,0.00,VWS V14.01,2013-07-31 11:59:00,
2013-07-31 08:04:00,67.8,66.3,30.18,ESE,119,0.0,0.0,95,0.00,,---,0.00,VWS V14.01,2013-07-31 12:04:00,
2013-07-31 08:09:00,69.7,66.6,30.18,ESE,119,0.0,1.0,90,0.00,,---,0.00,VWS V14.01,2013-07-31 12:09:00,
2013-07-31 08:14:00,71.4,66.3,30.18,ESE,119,0.0,1.0,84,0.00,,---,0.00,VWS V14.01,2013-07-31 12:14:00,
2013-07-31 08:19:00,72.9,65.7,30.18,ESE,119,0.0,1.0,78,0.00,,---,0.00,VWS V14.01,2013-07-31 12:19:00,
2013-07-31 08:24:00,73.7,66.4,30.18,ESE,119,0.0,1.0,78,0.00,,---,0.00,VWS V14.01,2013-07-31 12:24:00,
2013-07-31 08:29:00,74.4,66.3,30.18,ESE,119,0.0,1.0,76,0.00,,---,0.00,VWS V14.01,2013-07-31 12:29:00,
2013-07-31 08:34:00,75.0,66.2,30.18,ESE,119,0.0,0.0,74,0.00,,---,0.00,VWS V14.01,2013-07-31 12:34:00,
2013-07-31 08:39:00,75.5,66.6,30.18,ESE,119,0.0,0.0,74,0.00,,---,0.00,VWS V14.01,2013-07-31 12:39:00,
2013-07-31 08:44:00,75.3,67.2,30.18,ESE,119,0.0,0.0,76,0.00,,---,0.00,VWS V14.01,2013-07-31 12:44:00,
2013-07-31 08:49:00,74.9,66.1,30.18,ESE,119,0.0,0.0,74,0.00,,---,0.00,VWS V14.01,2013-07-31 12:49:00,
2013-07-31 08:54:00,75.0,66.9,30.18,ESE,119,0.0,1.0,76,0.00,,---,0.00,VWS V14.01,2013-07-31 12:54:00,
2013-07-31 08:59:00,74.8,67.1,30.18,ESE,119,0.0,1.0,77,0.00,,---,0.00,VWS V14.01,2013-07-31 12:59:00,
2013-07-31 09:04:00,74.5,67.6,30.18,ESE,119,0.0,0.0,79,0.00,,---,0.00,VWS V14.01,2013-07-31 13:04:00,
2013-07-31 09:09:00,74.7,67.8,30.18,ESE,119,0.0,0.0,79,0.00,,---,0.00,VWS V14.01,2013-07-31 13:09:00,
2013-07-31 09:14:00,74.8,64.8,30.18,ESE,119,0.0,0.0,71,0.00,,---,0.00,VWS V14.01,2013-07-31 13:14:00,
2013-07-31 09:19:00,74.9,65.3,30.18,ESE,119,0.0,1.0,72,0.00,,---,0.00,VWS V14.01,2013-07-31 13:19:00,
2013-07-31 09:25:00,75.6,67.5,30.18,ESE,119,0.0,1.0,76,0.00,,---,0.00,VWS V14.01,2013-07-31 13:25:00,
2013-07-31 09:30:00,76.8,66.7,30.18,ESE,119,0.0,1.0,71,0.00,,---,0.00,VWS V14.01,2013-07-31 13:30:00,
2013-07-31 09:35:00,77.8,63.3,30.18,ESE,119,0.0,1.0,61,0.00,,---,0.00,VWS V14.01,2013-07-31 13:35:00,
2013-07-31 09:40:00,78.5,64.4,30.18,ESE,119,0.0,1.0,62,0.00,,---,0.00,VWS V14.01,2013-07-31 13:40:00,
2013-07-31 09:45:00,79.4,65.3,30.18,ESE,119,0.0,1.0,62,0.00,,---,0.00,VWS V14.01,2013-07-31 13:45:00,
2013-07-31 09:50:00,79.0,65.3,30.18,ESE,113,1.0,1.0,63,0.00,,---,0.00,VWS V14.01,2013-07-31 13:50:00,
2013-07-31 09:55:00,78.9,63.4,30.18,ESE,119,0.0,1.0,59,0.00,,---,0.00,VWS V14.01,2013-07-31 13:55:00,
2013-07-31 10:00:00,78.5,64.0,30.18,SSW,213,1.0,2.0,61,0.00,,---,0.00,VWS V14.01,2013-07-31 14:00:00,
2013-07-31 10:05:00,77.9,62.4,30.17,SSE,159,1.0,2.0,59,0.00,,---,0.00,VWS V14.01,2013-07-31 14:05:00,
2013-07-31 10:10:00,78.5,63.0,30.17,East,98,0.0,2.0,59,0.00,,---,0.00,VWS V14.01,2013-07-31 14:10:00,
2013-07-31 10:15:00,79.7,64.6,30.17,East,96,0.0,2.0,60,0.00,,---,0.00,VWS V14.01,2013-07-31 14:15:00,
2013-07-31 10:20:00,80.6,65.4,30.17,East,96,0.0,2.0,60,0.00,,---,0.00,VWS V14.01,2013-07-31 14:20:00,
2013-07-31 10:25:00,81.6,63.4,30.17,SE,141,0.0,2.0,54,0.00,,---,0.00,VWS V14.01,2013-07-31 14:25:00,
2013-07-31 10:30:00,81.9,61.5,30.17,South,183,0.0,2.0,50,0.00,,---,0.00,VWS V14.01,2013-07-31 14:30:00,
2013-07-31 10:35:00,81.6,62.3,30.17,East,97,0.0,1.0,52,0.00,,---,0.00,VWS V14.01,2013-07-31 14:35:00,
2013-07-31 10:40:00,80.7,60.9,30.18,WSW,255,1.0,2.0,51,0.00,,---,0.00,VWS V14.01,2013-07-31 14:40:00,
2013-07-31 10:45:00,80.9,61.6,30.17,WSW,257,0.0,2.0,52,0.00,,---,0.00,VWS V14.01,2013-07-31 14:45:00,
2013-07-31 10:50:00,82.1,60.5,30.17,SE,134,0.0,2.0,48,0.00,,---,0.00,VWS V14.01,2013-07-31 14:50:00,
2013-07-31 10:55:00,82.6,61.5,30.17,ESE,103,0.0,2.0,49,0.00,,---,0.00,VWS V14.01,2013-07-31 14:55:00,
2013-07-31 11:00:00,82.8,59.9,30.17,WSW,243,0.0,2.0,46,0.00,,---,0.00,VWS V14.01,2013-07-31 15:00:00,
2013-07-31 11:05:00,83.0,62.5,30.17,WSW,252,0.0,1.0,50,0.00,,---,0.00,VWS V14.01,2013-07-31 15:05:00,
2013-07-31 11:10:00,83.4,65.0,30.17,WSW,258,2.0,2.0,54,0.00,,---,0.00,VWS V14.01,2013-07-31 15:10:00,
2013-07-31 11:15:00,82.3,59.5,30.17,WSW,241,0.0,2.0,46,0.00,,---,0.00,VWS V14.01,2013-07-31 15:15:00,
2013-07-31 11:20:00,82.1,60.5,30.17,South,170,0.0,2.0,48,0.00,,---,0.00,VWS V14.01,2013-07-31 15:20:00,
2013-07-31 11:25:00,82.4,63.0,30.17,East,79,1.0,2.0,52,0.00,,---,0.00,VWS V14.01,2013-07-31 15:25:00,
2013-07-31 11:30:00,82.2,60.6,30.17,ESE,114,0.0,0.0,48,0.00,,---,0.00,VWS V14.01,2013-07-31 15:30:00,
2013-07-31 11:35:00,82.3,60.1,30.17,SSE,148,1.0,1.0,47,0.00,,---,0.00,VWS V14.01,2013-07-31 15:35:00,
2013-07-31 11:40:00,82.5,62.6,30.17,South,169,0.0,2.0,51,0.00,,---,0.00,VWS V14.01,2013-07-31 15:40:00,
2013-07-31 11:45:00,82.8,62.3,30.17,South,174,0.0,2.0,50,0.00,,---,0.00,VWS V14.01,2013-07-31 15:45:00,
2013-07-31 11:50:00,82.4,62.5,30.17,SW,215,0.0,2.0,51,0.00,,---,0.00,VWS V14.01,2013-07-31 15:50:00,
2013-07-31 11:55:00,81.8,59.6,30.17,SSE,155,1.0,2.0,47,0.00,,---,0.00,VWS V14.01,2013-07-31 15:55:00,
2013-07-31 12:00:00,83.2,60.3,30.17,ESE,109,0.0,1.0,46,0.00,,---,0.00,VWS V14.01,2013-07-31 16:00:00,
2013-07-31 12:05:00,82.2,60.0,30.16,East,88,1.0,3.0,47,0.00,,---,0.00,VWS V14.01,2013-07-31 16:05:00,
2013-07-31 12:10:00,83.6,63.0,30.16,East,88,0.0,3.0,50,0.00,,---,0.00,VWS V14.01,2013-07-31 16:10:00,
2013-07-31 12:15:00,85.5,61.1,30.16,WNW,287,2.0,3.0,44,0.00,,---,0.00,VWS V14.01,2013-07-31 16:15:00,
2013-07-31 12:20:00,85.1,62.0,30.15,NE,56,0.0,3.0,46,0.00,,---,0.00,VWS V14.01,2013-07-31 16:20:00,
2013-07-31 12:25:00,85.1,63.8,30.15,SE,133,0.0,3.0,49,0.00,,---,0.00,VWS V14.01,2013-07-31 16:25:00,
2013-07-31 12:30:00,86.3,63.7,30.15,SE,131,0.0,0.0,47,0.00,,---,0.00,VWS V14.01,2013-07-31 16:30:00,
2013-07-31 12:35:00,85.8,63.9,30.15,ENE,62,1.0,1.0,48,0.00,,---,0.00,VWS V14.01,2013-07-31 16:35:00,
2013-07-31 12:40:00,84.6,59.7,30.15,East,93,0.0,1.0,43,0.00,,---,0.00,VWS V14.01,2013-07-31 16:40:00,
2013-07-31 12:45:00,84.9,63.6,30.15,SE,127,0.0,1.0,49,0.00,,---,0.00,VWS V14.01,2013-07-31 16:45:00,
2013-07-31 12:50:00,85.2,60.2,30.15,SSE,152,0.0,2.0,43,0.00,,---,0.00,VWS V14.01,2013-07-31 16:50:00,
2013-07-31 12:56:00,86.1,62.3,30.14,ESE,110,0.0,2.0,45,0.00,,---,0.00,VWS V14.01,2013-07-31 16:56:00,
2013-07-31 13:01:00,85.4,60.4,30.14,SSE,165,0.0,1.0,43,0.00,,---,0.00,VWS V14.01,2013-07-31 17:01:00,
2013-07-31 13:06:00,84.9,58.6,30.14,SSW,207,1.0,3.0,41,0.00,,---,0.00,VWS V14.01,2013-07-31 17:06:00,
2013-07-31 13:11:00,84.2,60.6,30.14,WSW,245,0.0,3.0,45,0.00,,---,0.00,VWS V14.01,2013-07-31 17:11:00,
2013-07-31 13:16:00,84.4,63.2,30.14,South,191,1.0,3.0,49,0.00,,---,0.00,VWS V14.01,2013-07-31 17:16:00,
2013-07-31 13:21:00,84.0,60.4,30.14,SW,222,0.0,3.0,45,0.00,,---,0.00,VWS V14.01,2013-07-31 17:21:00,
2013-07-31 13:26:00,84.2,60.6,30.14,North,8,1.0,3.0,45,0.00,,---,0.00,VWS V14.01,2013-07-31 17:26:00,
2013-07-31 13:31:00,84.8,61.1,30.14,NE,44,0.0,1.0,45,0.00,,---,0.00,VWS V14.01,2013-07-31 17:31:00,
2013-07-31 13:36:00,85.5,62.4,30.14,SE,139,0.0,1.0,46,0.00,,---,0.00,VWS V14.01,2013-07-31 17:36:00,
2013-07-31 13:41:00,86.4,61.3,30.14,NE,46,0.0,1.0,43,0.00,,---,0.00,VWS V14.01,2013-07-31 17:41:00,
2013-07-31 13:46:00,85.5,58.5,30.14,ESE,109,1.0,2.0,40,0.00,,---,0.00,VWS V14.01,2013-07-31 17:46:00,
2013-07-31 13:51:00,83.6,59.4,30.13,WSW,243,1.0,3.0,44,0.00,,---,0.00,VWS V14.01,2013-07-31 17:51:00,
2013-07-31 13:56:00,83.6,61.8,30.13,SW,224,0.0,3.0,48,0.00,,---,0.00,VWS V14.01,2013-07-31 17:56:00,
2013-07-31 14:01:00,83.7,63.7,30.13,SW,224,0.0,0.0,51,0.00,,---,0.00,VWS V14.01,2013-07-31 18:01:00,
2013-07-31 14:06:00,83.2,64.8,30.13,SSW,207,0.0,0.0,54,0.00,,---,0.00,VWS V14.01,2013-07-31 18:06:00,
2013-07-31 14:11:00,83.5,64.6,30.13,SSE,161,2.0,2.0,53,0.00,,---,0.00,VWS V14.01,2013-07-31 18:11:00,
2013-07-31 14:16:00,83.8,60.8,30.13,North,8,0.0,2.0,46,0.00,,---,0.00,VWS V14.01,2013-07-31 18:16:00,
2013-07-31 14:21:00,84.3,60.0,30.12,SSE,163,0.0,2.0,44,0.00,,---,0.00,VWS V14.01,2013-07-31 18:21:00,
2013-07-31 14:26:00,84.1,62.9,30.12,SW,219,0.0,2.0,49,0.00,,---,0.00,VWS V14.01,2013-07-31 18:26:00,
2013-07-31 14:31:00,83.6,64.1,30.12,ESE,105,0.0,1.0,52,0.00,,---,0.00,VWS V14.01,2013-07-31 18:31:00,
2013-07-31 14:36:00,82.9,64.0,30.12,South,179,0.0,3.0,53,0.00,,---,0.00,VWS V14.01,2013-07-31 18:36:00,
2013-07-31 14:41:00,81.5,64.3,30.12,WSW,243,3.0,4.0,56,0.00,,---,0.00,VWS V14.01,2013-07-31 18:41:00,
2013-07-31 14:46:00,80.8,65.6,30.12,SW,216,0.0,4.0,60,0.00,,---,0.00,VWS V14.01,2013-07-31 18:46:00,
2013-07-31 14:51:00,81.1,65.9,30.12,SSW,207,0.0,4.0,60,0.00,,---,0.00,VWS V14.01,2013-07-31 18:51:00,
2013-07-31 14:56:00,81.7,66.5,30.12,SE,127,1.0,4.0,60,0.00,,---,0.00,VWS V14.01,2013-07-31 18:56:00,
2013-07-31 15:01:00,82.1,65.9,30.11,WSW,239,1.0,1.0,58,0.00,,---,0.00,VWS V14.01,2013-07-31 19:01:00,
2013-07-31 15:06:00,82.3,65.6,30.11,SSE,160,0.0,4.0,57,0.00,,---,0.00,VWS V14.01,2013-07-31 19:06:00,
2013-07-31 15:11:00,82.8,66.0,30.11,SW,229,1.0,4.0,57,0.00,,---,0.00,VWS V14.01,2013-07-31 19:11:00,
2013-07-31 15:16:00,83.2,67.4,30.11,South,179,1.0,7.0,59,0.00,,---,0.00,VWS V14.01,2013-07-31 19:16:00,
2013-07-31 15:21:00,83.4,65.6,30.11,SSW,192,4.0,7.0,55,0.00,,---,0.00,VWS V14.01,2013-07-31 19:21:00,
2013-07-31 15:26:00,83.1,65.8,30.10,ESE,103,0.0,7.0,56,0.00,,---,0.00,VWS V14.01,2013-07-31 19:26:00,
2013-07-31 15:32:00,82.3,66.1,30.11,SE,134,1.0,5.0,58,0.00,,---,0.00,VWS V14.01,2013-07-31 19:32:00,
2013-07-31 15:37:00,82.1,65.4,30.10,ENE,75,1.0,5.0,57,0.00,,---,0.00,VWS V14.01,2013-07-31 19:37:00,
2013-07-31 15:42:00,81.8,66.6,30.10,ESE,113,0.0,5.0,60,0.00,,---,0.00,VWS V14.01,2013-07-31 19:42:00,
2013-07-31 15:47:00,81.2,66.5,30.10,SW,223,1.0,5.0,61,0.00,,---,0.00,VWS V14.01,2013-07-31 19:47:00,
2013-07-31 15:52:00,80.5,66.3,30.10,West,267,0.0,6.0,62,0.00,,---,0.00,VWS V14.01,2013-07-31 19:52:00,
2013-07-31 15:57:00,80.3,66.1,30.10,WSW,248,2.0,6.0,62,0.00,,---,0.00,VWS V14.01,2013-07-31 19:57:00,
2013-07-31 16:02:00,80.1,66.8,30.10,SSE,162,1.0,1.0,64,0.00,,---,0.00,VWS V14.01,2013-07-31 20:02:00,
2013-07-31 16:07:00,79.9,66.2,30.10,SSW,210,2.0,5.0,63,0.00,,---,0.00,VWS V14.01,2013-07-31 20:07:00,
2013-07-31 16:12:00,79.6,67.2,30.10,West,260,0.0,5.0,66,0.00,,---,0.00,VWS V14.01,2013-07-31 20:12:00,
2013-07-31 16:17:00,79.5,66.7,30.10,SE,125,1.0,6.0,65,0.00,,---,0.00,VWS V14.01,2013-07-31 20:17:00,
2013-07-31 16:22:00,79.3,66.5,30.10,South,177,0.0,6.0,65,0.00,,---,0.00,VWS V14.01,2013-07-31 20:22:00,
2013-07-31 16:27:00,79.0,65.3,30.10,SSE,165,0.0,7.0,63,0.00,,---,0.00,VWS V14.01,2013-07-31 20:27:00,
2013-07-31 16:32:00,78.7,66.4,30.10,SSE,154,0.0,2.0,66,0.00,,---,0.00,VWS V14.01,2013-07-31 20:32:00,
2013-07-31 16:37:00,78.5,66.2,30.10,East,83,0.0,5.0,66,0.00,,---,0.00,VWS V14.01,2013-07-31 20:37:00,
2013-07-31 16:42:00,78.3,66.4,30.10,ENE,73,1.0,5.0,67,0.00,,---,0.00,VWS V14.01,2013-07-31 20:42:00,
2013-07-31 16:47:00,77.9,65.6,30.10,ESE,118,1.0,7.0,66,0.00,,---,0.00,VWS V14.01,2013-07-31 20:47:00,
2013-07-31 16:52:00,77.8,66.8,30.10,ESE,115,1.0,7.0,69,0.00,,---,0.00,VWS V14.01,2013-07-31 20:52:00,
2013-07-31 16:57:00,77.5,66.5,30.10,SE,129,1.0,7.0,69,0.00,,---,0.00,VWS V14.01,2013-07-31 20:57:00,
2013-07-31 17:02:00,77.6,67.9,30.10,NNW,345,0.0,1.0,72,0.00,,---,0.00,VWS V14.01,2013-07-31 21:02:00,
2013-07-31 17:07:00,77.5,66.1,30.10,West,280,0.0,3.0,68,0.00,,---,0.00,VWS V14.01,2013-07-31 21:07:00,
2013-07-31 17:12:00,77.4,66.9,30.10,SW,219,0.0,4.0,70,0.00,,---,0.00,VWS V14.01,2013-07-31 21:12:00,
2013-07-31 17:17:00,77.1,66.6,30.10,WNW,293,3.0,5.0,70,0.00,,---,0.00,VWS V14.01,2013-07-31 21:17:00,
2013-07-31 17:22:00,76.6,66.5,30.10,South,171,0.0,5.0,71,0.00,,---,0.00,VWS V14.01,2013-07-31 21:22:00,
2013-07-31 17:27:00,76.5,66.8,30.10,SSE,168,0.0,5.0,72,0.00,,---,0.00,VWS V14.01,2013-07-31 21:27:00,
2013-07-31 17:32:00,76.3,67.0,30.10,WSW,240,3.0,3.0,73,0.00,,---,0.00,VWS V14.01,2013-07-31 21:32:00,
2013-07-31 17:37:00,76.0,67.5,30.10,WSW,246,1.0,3.0,75,0.00,,---,0.00,VWS V14.01,2013-07-31 21:37:00,
2013-07-31 17:42:00,75.9,67.8,30.09,SSE,164,0.0,3.0,76,0.00,,---,0.00,VWS V14.01,2013-07-31 21:42:00,
2013-07-31 17:47:00,75.9,67.4,30.09,East,93,2.0,4.0,75,0.00,,---,0.00,VWS V14.01,2013-07-31 21:47:00,
2013-07-31 17:53:00,75.7,66.8,30.09,SE,127,0.0,6.0,74,0.00,,---,0.00,VWS V14.01,2013-07-31 21:53:00,
2013-07-31 17:57:00,75.6,67.1,30.09,ESE,120,1.0,6.0,75,0.00,,---,0.00,VWS V14.01,2013-07-31 21:57:00,
2013-07-31 18:03:00,75.3,67.2,30.09,WNW,302,1.0,3.0,76,0.00,,---,0.00,VWS V14.01,2013-07-31 22:03:00,
2013-07-31 18:08:00,75.1,67.4,30.09,WNW,288,0.0,3.0,77,0.00,,---,0.00,VWS V14.01,2013-07-31 22:08:00,
2013-07-31 18:13:00,75.0,67.3,30.09,ENE,68,1.0,3.0,77,0.00,,---,0.00,VWS V14.01,2013-07-31 22:13:00,
2013-07-31 18:18:00,74.9,67.6,30.09,SE,136,0.0,3.0,78,0.00,,---,0.00,VWS V14.01,2013-07-31 22:18:00,
2013-07-31 18:23:00,74.8,67.1,30.09,ESE,106,0.0,3.0,77,0.00,,---,0.00,VWS V14.01,2013-07-31 22:23:00,
2013-07-31 18:28:00,74.7,67.0,30.09,SSW,212,1.0,5.0,77,0.00,,---,0.00,VWS V14.01,2013-07-31 22:28:00,
2013-07-31 18:33:00,74.6,67.3,30.09,SW,214,0.0,3.0,78,0.00,,---,0.00,VWS V14.01,2013-07-31 22:33:00,
2013-07-31 18:38:00,74.5,67.2,30.09,SSW,207,0.0,3.0,78,0.00,,---,0.00,VWS V14.01,2013-07-31 22:38:00,
2013-07-31 18:43:00,74.4,66.7,30.08,West,274,0.0,3.0,77,0.00,,---,0.00,VWS V14.01,2013-07-31 22:43:00,
2013-07-31 18:48:00,74.3,67.0,30.09,NNE,23,0.0,3.0,78,0.00,,---,0.00,VWS V14.01,2013-07-31 22:48:00,
2013-07-31 18:53:00,74.2,67.3,30.08,North,5,0.0,3.0,79,0.00,,---,0.00,VWS V14.01,2013-07-31 22:53:00,
2013-07-31 18:58:00,74.0,66.7,30.09,WSW,254,0.0,3.0,78,0.00,,---,0.00,VWS V14.01,2013-07-31 22:58:00,
2013-07-31 19:03:00,73.9,66.6,30.09,SSE,152,0.0,2.0,78,0.00,,---,0.00,VWS V14.01,2013-07-31 23:03:00,
2013-07-31 19:08:00,73.7,67.2,30.09,SSE,151,0.0,2.0,80,0.00,,---,0.00,VWS V14.01,2013-07-31 23:08:00,
2013-07-31 19:13:00,73.5,67.0,30.09,West,271,0.0,2.0,80,0.00,,---,0.00,VWS V14.01,2013-07-31 23:13:00,
2013-07-31 19:18:00,73.4,66.9,30.08,South,179,0.0,2.0,80,0.00,,---,0.00,VWS V14.01,2013-07-31 23:18:00,
2013-07-31 19:23:00,73.3,66.8,30.08,WSW,242,0.0,2.0,80,0.00,,---,0.00,VWS V14.01,2013-07-31 23:23:00,
2013-07-31 19:28:00,73.2,67.0,30.08,SW,232,0.0,3.0,81,0.00,,---,0.00,VWS V14.01,2013-07-31 23:28:00,
2013-07-31 19:33:00,73.3,67.1,30.08,SSE,158,0.0,0.0,81,0.00,,---,0.00,VWS V14.01,2013-07-31 23:33:00,
2013-07-31 19:38:00,73.3,67.1,30.08,SW,226,0.0,2.0,81,0.00,,---,0.00,VWS V14.01,2013-07-31 23:38:00,
2013-07-31 19:43:00,73.1,66.9,30.08,NNE,25,0.0,2.0,81,0.00,,---,0.00,VWS V14.01,2013-07-31 23:43:00,
2013-07-31 19:48:00,72.9,66.7,30.08,West,265,0.0,2.0,81,0.00,,---,0.00,VWS V14.01,2013-07-31 23:48:00,
2013-07-31 19:53:00,72.7,66.5,30.08,SSW,203,0.0,2.0,81,0.00,,---,0.00,VWS V14.01,2013-07-31 23:53:00,
2013-07-31 19:58:00,72.6,66.8,30.08,SSW,197,0.0,2.0,82,0.00,,---,0.00,VWS V14.01,2013-07-31 23:58:00,
2013-07-31 20:03:00,72.4,66.2,30.08,SSW,211,0.0,3.0,81,0.00,,---,0.00,VWS V14.01,2013-08-01 00:03:00,
2013-07-31 20:08:00,72.3,66.2,30.08,SW,227,1.0,3.0,81,0.00,,---,0.00,VWS V14.01,2013-08-01 00:08:00,
2013-07-31 20:13:00,72.2,66.4,30.08,ESE,123,0.0,3.0,82,0.00,,---,0.00,VWS V14.01,2013-08-01 00:13:00,
2013-07-31 20:18:00,72.0,66.2,30.08,SSW,200,0.0,3.0,82,0.00,,---,0.00,VWS V14.01,2013-08-01 00:18:00,
2013-07-31 20:23:00,71.8,65.7,30.08,West,270,0.0,3.0,81,0.00,,---,0.00,VWS V14.01,2013-08-01 00:23:00,
2013-07-31 20:28:00,71.8,65.7,30.08,SW,225,1.0,3.0,81,0.00,,---,0.00,VWS V14.01,2013-08-01 00:28:00,
2013-07-31 20:33:00,71.8,65.7,30.08,WSW,251,0.0,2.0,81,0.00,,---,0.00,VWS V14.01,2013-08-01 00:33:00,
2013-07-31 20:38:00,71.8,65.7,30.08,WNW,283,0.0,2.0,81,0.00,,---,0.00,VWS V14.01,2013-08-01 00:38:00,
2013-07-31 20:43:00,71.7,65.6,30.08,WSW,243,0.0,2.0,81,0.00,,---,0.00,VWS V14.01,2013-08-01 00:43:00,
2013-07-31 20:48:00,71.6,65.5,30.08,SW,230,0.0,2.0,81,0.00,,---,0.00,VWS V14.01,2013-08-01 00:48:00,
2013-07-31 20:53:00,71.5,65.4,30.08,WSW,254,0.0,2.0,81,0.00,,---,0.00,VWS V14.01,2013-08-01 00:53:00,
2013-07-31 20:58:00,71.4,65.6,30.09,WSW,257,0.0,2.0,82,0.00,,---,0.00,VWS V14.01,2013-08-01 00:58:00,
2013-07-31 21:03:00,71.2,65.4,30.09,WSW,257,0.0,1.0,82,0.00,,---,0.00,VWS V14.01,2013-08-01 01:03:00,
2013-07-31 21:08:00,71.1,65.3,30.08,WNW,283,0.0,2.0,82,0.00,,---,0.00,VWS V14.01,2013-08-01 01:08:00,
2013-07-31 21:13:00,71.1,65.3,30.09,WSW,254,2.0,2.0,82,0.00,,---,0.00,VWS V14.01,2013-08-01 01:13:00,
2013-07-31 21:18:00,71.1,65.3,30.09,West,278,0.0,2.0,82,0.00,,---,0.00,VWS V14.01,2013-08-01 01:18:00,
2013-07-31 21:23:00,70.9,65.1,30.09,WSW,253,0.0,2.0,82,0.00,,---,0.00,VWS V14.01,2013-08-01 01:23:00,
2013-07-31 21:28:00,70.7,64.9,30.09,WSW,250,0.0,2.0,82,0.00,,---,0.00,VWS V14.01,2013-08-01 01:28:00,
2013-07-31 21:33:00,70.6,65.2,30.09,SW,236,0.0,1.0,83,0.00,,---,0.00,VWS V14.01,2013-08-01 01:33:00,
2013-07-31 21:38:00,70.5,64.8,30.09,SW,219,0.0,3.0,82,0.00,,---,0.00,VWS V14.01,2013-08-01 01:38:00,
2013-07-31 21:43:00,70.5,64.8,30.09,SW,230,0.0,3.0,82,0.00,,---,0.00,VWS V14.01,2013-08-01 01:43:00,
2013-07-31 21:48:00,70.3,64.9,30.09,West,264,0.0,3.0,83,0.00,,---,0.00,VWS V14.01,2013-08-01 01:48:00,
2013-07-31 21:53:00,70.3,64.6,30.09,SW,228,0.0,3.0,82,0.00,,---,0.00,VWS V14.01,2013-08-01 01:53:00,
2013-07-31 21:59:00,70.3,64.6,30.09,West,269,0.0,3.0,82,0.00,,---,0.00,VWS V14.01,2013-08-01 01:59:00,
2013-07-31 22:04:00,70.2,64.4,30.09,WSW,244,0.0,0.0,82,0.00,,---,0.00,VWS V14.01,2013-08-01 02:04:00,
2013-07-31 22:09:00,70.1,65.1,30.09,ESE,113,0.0,1.0,84,0.00,,---,0.00,VWS V14.01,2013-08-01 02:09:00,
2013-07-31 22:14:00,69.9,64.2,30.09,ESE,113,0.0,1.0,82,0.00,,---,0.00,VWS V14.01,2013-08-01 02:14:00,
2013-07-31 22:19:00,69.8,64.4,30.09,ESE,113,0.0,1.0,83,0.00,,---,0.00,VWS V14.01,2013-08-01 02:19:00,
2013-07-31 22:24:00,69.7,64.3,30.09,SW,214,0.0,1.0,83,0.00,,---,0.00,VWS V14.01,2013-08-01 02:24:00,
2013-07-31 22:29:00,69.7,64.0,30.08,SW,222,0.0,1.0,82,0.00,,---,0.00,VWS V14.01,2013-08-01 02:29:00,
2013-07-31 22:34:00,69.7,64.3,30.08,SW,233,0.0,1.0,83,0.00,,---,0.00,VWS V14.01,2013-08-01 02:34:00,
2013-07-31 22:39:00,69.6,64.2,30.08,SW,217,0.0,1.0,83,0.00,,---,0.00,VWS V14.01,2013-08-01 02:39:00,
2013-07-31 22:44:00,69.6,64.2,30.08,SW,236,0.0,1.0,83,0.00,,---,0.00,VWS V14.01,2013-08-01 02:44:00,
2013-07-31 22:49:00,69.5,64.5,30.08,SW,232,0.0,1.0,84,0.00,,---,0.00,VWS V14.01,2013-08-01 02:49:00,
2013-07-31 22:54:00,69.4,64.0,30.08,SW,218,1.0,1.0,83,0.00,,---,0.00,VWS V14.01,2013-08-01 02:54:00,
2013-07-31 22:59:00,69.4,64.0,30.08,WSW,237,0.0,2.0,83,0.00,,---,0.00,VWS V14.01,2013-08-01 02:59:00,
2013-07-31 23:04:00,69.4,63.7,30.08,South,183,0.0,1.0,82,0.00,,---,0.00,VWS V14.01,2013-08-01 03:04:00,
2013-07-31 23:09:00,69.4,63.7,30.08,West,266,0.0,1.0,82,0.00,,---,0.00,VWS V14.01,2013-08-01 03:09:00,
2013-07-31 23:14:00,69.4,63.7,30.08,West,264,0.0,1.0,82,0.00,,---,0.00,VWS V14.01,2013-08-01 03:14:00,
2013-07-31 23:19:00,69.4,63.7,30.08,West,266,0.0,1.0,82,0.00,,---,0.00,VWS V14.01,2013-08-01 03:19:00,
2013-07-31 23:24:00,69.4,63.7,30.08,West,266,0.0,1.0,82,0.00,,---,0.00,VWS V14.01,2013-08-01 03:24:00,
2013-07-31 23:29:00,69.4,63.3,30.08,West,276,1.0,1.0,81,0.00,,---,0.00,VWS V14.01,2013-08-01 03:29:00,
2013-07-31 23:34:00,69.7,64.0,30.08,WSW,254,0.0,2.0,82,0.00,,---,0.00,VWS V14.01,2013-08-01 03:34:00,
2013-07-31 23:39:00,69.7,64.3,30.07,SSE,157,0.0,2.0,83,0.00,,---,0.00,VWS V14.01,2013-08-01 03:39:00,
2013-07-31 23:44:00,69.6,63.5,30.08,SSW,204,0.0,2.0,81,0.00,,---,0.00,VWS V14.01,2013-08-01 03:44:00,
2013-07-31 23:49:00,69.7,63.6,30.08,SE,140,0.0,2.0,81,0.00,,---,0.00,VWS V14.01,2013-08-01 03:49:00,
2013-07-31 23:54:00,69.7,64.0,30.07,SE,140,0.0,2.0,82,0.00,,---,0.00,VWS V14.01,2013-08-01 03:54:00,
2013-07-31 23:59:00,69.7,64.0,30.07,SE,140,0.0,2.0,82,0.00,,---,0.00,VWS V14.01,2013-08-01 03:59:00,